Terminal Aerodrome Forecast
Issued by NWS Jacksonville, FL

Home | Current Version | Previous Version | Text Only | Print | Product List | Glossary On
Versions: 1 2 3 4 5 6 7 8 9 10 11 12 13
000
FTUS42 KJAX 041741
TAFSSI
TAF
KSSI 041741Z 0418/0518 10011KT P6SM BKN040 BKN080
     FM042300 14008KT P6SM SCT035 BKN050
     FM050900 19008KT P6SM VCSH SCT025 BKN040 OVC060
     FM051400 23006KT P6SM VCSH SCT010 BKN020=

USA.gov is the U.S. government's official web portal to all federal, state and local government web resources and services.